createdAt,value
2018-08-31T00:05:49.722Z,72.68
2018-08-31T00:11:02.609Z,71.94
2018-08-31T00:16:06.187Z,72.51
2018-08-31T00:21:09.821Z,72.76
2018-08-31T00:26:25.486Z,72.97
2018-08-31T00:33:41.770Z,73.03
2018-08-31T00:38:56.396Z,73.57
2018-08-31T00:44:20.765Z,73.02
2018-08-31T00:49:24.269Z,74.09
2018-08-31T00:54:27.877Z,74.74
2018-08-31T00:59:31.426Z,74.88
2018-08-31T01:04:34.966Z,75.27
2018-08-31T01:09:38.899Z,76.78
2018-08-31T01:14:42.433Z,77.11
2018-08-31T01:19:45.953Z,76.69
2018-08-31T01:24:49.468Z,75.69
2018-08-31T01:29:53.023Z,75.32
2018-08-31T01:34:56.566Z,74.15
2018-08-31T01:40:00.105Z,74.63
2018-08-31T01:45:03.794Z,74.27
2018-08-31T01:50:07.739Z,74.26
2018-08-31T01:55:11.288Z,73.99
2018-08-31T02:00:14.791Z,74.34
2018-08-31T02:05:18.305Z,74.03
2018-08-31T02:10:21.828Z,73.36
2018-08-31T02:15:25.326Z,73.57
2018-08-31T02:20:28.889Z,74.06
2018-08-31T02:25:32.477Z,73.31
2018-08-31T02:30:35.990Z,73.79
2018-08-31T02:35:39.517Z,74.13
2018-08-31T02:40:43.229Z,74.09
2018-08-31T02:45:46.771Z,74.27
2018-08-31T02:50:50.316Z,74.49
2018-08-31T02:55:53.854Z,74.65
2018-08-31T03:00:57.339Z,74.25
2018-08-31T03:06:00.910Z,74.01
2018-08-31T03:11:04.483Z,74.28
2018-08-31T03:16:08.195Z,73.88
2018-08-31T03:21:11.692Z,73.83
2018-08-31T03:26:15.361Z,74.02
2018-08-31T03:31:19.195Z,74.20
2018-08-31T03:36:22.729Z,73.48
2018-08-31T03:41:26.241Z,73.45
2018-08-31T03:46:29.753Z,73.62
2018-08-31T03:51:33.298Z,73.45
2018-08-31T03:56:36.834Z,73.30
2018-08-31T04:01:40.396Z,72.92
2018-08-31T04:06:43.817Z,72.72
2018-08-31T04:11:47.335Z,73.25
2018-08-31T04:16:50.893Z,72.58
2018-08-31T04:21:54.397Z,72.73
2018-08-31T04:26:57.934Z,72.15
2018-08-31T04:32:01.690Z,72.44
2018-08-31T04:37:05.633Z,72.97
2018-08-31T04:42:09.171Z,72.66
2018-08-31T04:47:12.733Z,72.03
2018-08-31T04:52:16.286Z,72.18
2018-08-31T04:57:19.777Z,72.46
2018-08-31T05:02:23.254Z,73.19
2018-08-31T05:07:26.764Z,73.84
2018-08-31T05:12:30.253Z,73.66
2018-08-31T05:17:33.787Z,73.19
2018-08-31T05:22:37.460Z,72.52
2018-08-31T05:27:41.016Z,73.07
2018-08-31T05:32:44.520Z,73.37
2018-08-31T05:37:48.045Z,72.48
2018-08-31T05:42:51.586Z,71.98
2018-08-31T05:47:55.071Z,72.04
2018-08-31T05:52:58.579Z,71.68
2018-08-31T05:58:02.088Z,70.72
2018-08-31T06:03:05.593Z,70.33
2018-08-31T06:08:09.116Z,69.92
2018-08-31T06:13:12.774Z,69.09
2018-08-31T06:18:16.335Z,69.24
2018-08-31T06:23:19.903Z,68.86
2018-08-31T06:28:23.421Z,68.54
2018-08-31T06:33:26.994Z,67.75
2018-08-31T06:38:30.588Z,68.37
2018-08-31T06:43:34.070Z,68.55
2018-08-31T06:48:37.620Z,68.13
2018-08-31T06:53:41.129Z,67.82
2018-08-31T06:58:44.649Z,67.97
2018-08-31T07:03:48.297Z,67.30
2018-08-31T07:08:51.720Z,65.91
2018-08-31T07:13:55.190Z,65.88
2018-08-31T07:18:58.713Z,64.24
2018-08-31T07:24:02.212Z,63.66
2018-08-31T07:29:05.901Z,62.24
2018-08-31T07:34:09.399Z,62.49
2018-08-31T07:39:12.892Z,61.33
2018-08-31T07:44:16.387Z,62.11
2018-08-31T07:49:19.909Z,62.09
2018-08-31T07:54:23.391Z,62.16
2018-08-31T07:59:26.888Z,60.93
2018-08-31T08:04:30.417Z,60.08
2018-08-31T08:09:33.982Z,60.08
2018-08-31T08:14:37.523Z,59.82
2018-08-31T08:19:41.071Z,60.67
2018-08-31T08:24:44.611Z,60.52
2018-08-31T08:29:48.164Z,58.03
2018-08-31T08:34:51.690Z,59.79
2018-08-31T08:39:55.199Z,59.67
2018-08-31T08:44:58.694Z,58.56
2018-08-31T08:50:02.376Z,59.42
2018-08-31T08:55:06.029Z,59.64
2018-08-31T09:00:09.631Z,56.62
2018-08-31T09:05:13.066Z,57.06
2018-08-31T09:10:16.586Z,54.46
2018-08-31T09:15:20.117Z,54.64
2018-08-31T09:20:23.643Z,55.93
2018-08-31T09:25:27.088Z,55.30
2018-08-31T09:30:36.486Z,54.58
2018-08-31T09:35:39.984Z,54.08
2018-08-31T09:40:43.466Z,53.77
2018-08-31T09:45:47.017Z,52.56
2018-08-31T09:50:50.524Z,53.14
2018-08-31T09:55:54.038Z,50.84
2018-08-31T10:01:09.225Z,51.13
2018-08-31T10:06:12.771Z,50.89
2018-08-31T10:11:16.261Z,51.84
2018-08-31T10:16:19.749Z,48.61
2018-08-31T10:21:23.257Z,50.11
2018-08-31T10:26:26.813Z,48.89
2018-08-31T10:31:30.354Z,48.44
2018-08-31T10:36:40.481Z,48.47
2018-08-31T10:41:43.938Z,48.85
2018-08-31T10:46:47.455Z,48.01
2018-08-31T10:51:50.810Z,45.83
2018-08-31T10:56:54.454Z,46.07
2018-08-31T11:01:58.042Z,43.32
2018-08-31T11:07:01.525Z,46.66
2018-08-31T11:12:05.152Z,46.46
2018-08-31T11:17:08.931Z,44.31
2018-08-31T11:22:13.811Z,41.94
2018-08-31T11:27:17.375Z,39.76
2018-08-31T11:32:20.871Z,37.99
2018-08-31T11:37:24.446Z,31.70
2018-08-31T11:42:28.336Z,28.55
2018-08-31T11:47:31.851Z,24.14
2018-08-31T11:52:35.381Z,23.02
2018-08-31T11:57:38.903Z,17.74
2018-08-31T12:02:42.378Z,18.43
2018-08-31T12:07:46.003Z,19.22
2018-08-31T12:12:49.606Z,24.10
2018-08-31T12:17:53.195Z,22.89
2018-08-31T12:22:56.704Z,20.71
2018-08-31T12:28:00.223Z,27.01
2018-08-31T12:33:04.125Z,22.97
2018-08-31T12:38:07.616Z,22.29
2018-08-31T12:43:11.138Z,19.12
2018-08-31T12:48:14.594Z,20.83
2018-08-31T12:53:18.188Z,27.91
2018-08-31T12:58:22.198Z,23.25
2018-08-31T13:03:26.697Z,27.65
2018-08-31T13:08:30.657Z,27.73
2018-08-31T13:13:34.352Z,23.99
2018-08-31T13:18:38.005Z,25.20
2018-08-31T13:23:41.710Z,27.50
2018-08-31T13:28:45.264Z,29.32
2018-08-31T13:33:48.779Z,29.44
2018-08-31T13:38:52.681Z,31.34
2018-08-31T13:43:56.289Z,29.19
2018-08-31T13:49:00.735Z,27.93
2018-08-31T13:54:04.519Z,28.88
2018-08-31T13:59:08.001Z,28.23
2018-08-31T14:04:11.480Z,27.78
2018-08-31T14:09:14.986Z,28.37
2018-08-31T14:14:18.610Z,30.14
2018-08-31T14:19:22.173Z,30.24
2018-08-31T14:24:26.776Z,31.91
2018-08-31T14:29:30.620Z,32.31
2018-08-31T14:34:34.184Z,31.83
2018-08-31T14:39:37.966Z,31.21
2018-08-31T14:44:41.914Z,31.67
2018-08-31T14:49:45.533Z,31.87
2018-08-31T14:54:49.066Z,32.04
2018-08-31T14:59:52.624Z,33.06
2018-08-31T15:04:56.132Z,33.30
2018-08-31T15:09:59.566Z,32.36
2018-08-31T15:15:03.353Z,32.52
2018-08-31T15:20:07.740Z,33.69
2018-08-31T15:25:11.377Z,33.22
2018-08-31T15:31:17.484Z,33.80
2018-08-31T15:36:21.125Z,34.69
2018-08-31T15:41:24.764Z,35.36
2018-08-31T15:46:28.273Z,35.04
2018-08-31T15:51:31.973Z,34.40
2018-08-31T15:56:35.734Z,35.14
2018-08-31T16:01:39.222Z,35.99
2018-08-31T16:06:42.822Z,36.63
2018-08-31T16:11:46.356Z,35.10
2018-08-31T16:16:49.874Z,36.06
2018-08-31T16:21:53.488Z,36.20
2018-08-31T16:26:56.938Z,36.09
2018-08-31T16:32:00.550Z,36.96
2018-08-31T16:37:04.009Z,36.44
2018-08-31T16:42:07.910Z,36.34
2018-08-31T16:47:11.529Z,36.81
2018-08-31T16:52:15.198Z,37.10
2018-08-31T16:57:18.905Z,38.13
2018-08-31T17:02:25.823Z,37.40
2018-08-31T17:07:29.699Z,38.47
2018-08-31T17:12:33.425Z,38.35
2018-08-31T17:17:37.483Z,38.63
2018-08-31T17:22:41.127Z,38.32
2018-08-31T17:27:50.263Z,37.71
2018-08-31T17:32:59.331Z,37.14
2018-08-31T17:38:03.582Z,38.33
2018-08-31T17:43:08.851Z,39.48
2018-08-31T17:48:13.523Z,39.77
2018-08-31T17:53:17.263Z,39.72
2018-08-31T17:58:20.814Z,40.00
2018-08-31T18:03:25.631Z,40.42
2018-08-31T18:08:29.802Z,40.83
2018-08-31T18:13:33.367Z,40.88
2018-08-31T18:18:37.017Z,40.68
2018-08-31T18:23:40.654Z,41.51
2018-08-31T18:28:45.285Z,41.24
2018-08-31T18:33:48.814Z,41.78
2018-08-31T18:38:53.049Z,42.53
2018-08-31T18:43:56.881Z,42.26
2018-08-31T18:49:01.488Z,42.25
2018-08-31T18:54:05.037Z,42.86
2018-08-31T18:59:10.320Z,44.42
2018-08-31T19:04:13.943Z,45.59
2018-08-31T19:09:19.319Z,48.00
2018-08-31T19:14:23.060Z,47.46
2018-08-31T19:19:26.587Z,49.00
2018-08-31T19:24:30.185Z,50.09
2018-08-31T19:29:33.702Z,51.68
2018-08-31T19:34:37.558Z,51.40
2018-08-31T19:39:41.206Z,52.30
2018-08-31T19:44:44.754Z,50.93
2018-08-31T19:49:50.110Z,51.47
2018-08-31T19:54:53.677Z,52.84
2018-08-31T19:59:57.321Z,52.73
2018-08-31T20:05:01.842Z,52.99
2018-08-31T20:10:05.520Z,53.78
2018-08-31T20:15:09.372Z,52.08
2018-08-31T20:20:13.052Z,52.90
2018-08-31T20:25:17.846Z,53.98
2018-08-31T20:30:22.496Z,54.35
2018-08-31T20:35:25.976Z,55.13
2018-08-31T20:40:29.496Z,54.93
2018-08-31T20:45:33.086Z,55.71
2018-08-31T20:50:37.305Z,56.15
2018-08-31T20:55:40.804Z,55.21
2018-08-31T21:00:44.696Z,56.10
2018-08-31T21:05:48.191Z,56.68
2018-08-31T21:10:51.775Z,56.69
2018-08-31T21:15:55.372Z,56.93
2018-08-31T21:21:06.252Z,57.27
2018-08-31T21:26:09.959Z,57.08
2018-08-31T21:31:14.113Z,57.32
2018-08-31T21:36:17.983Z,57.13
2018-08-31T21:41:22.900Z,57.59
2018-08-31T21:46:26.539Z,57.63
2018-08-31T21:51:30.122Z,57.80
2018-08-31T21:56:33.673Z,57.79
2018-08-31T22:01:41.091Z,58.65
2018-08-31T22:06:45.062Z,59.00
2018-08-31T22:11:48.558Z,59.29
2018-08-31T22:16:52.147Z,59.67
2018-08-31T22:21:55.642Z,59.73
2018-08-31T22:26:59.199Z,59.80
2018-08-31T22:32:03.054Z,60.61
2018-08-31T22:37:06.591Z,60.00
2018-08-31T22:42:10.122Z,60.50
2018-08-31T22:47:13.739Z,60.49
2018-08-31T22:52:17.281Z,60.09
2018-08-31T22:57:20.708Z,59.46
2018-08-31T23:02:24.206Z,59.66
2018-08-31T23:07:33.000Z,61.26
2018-08-31T23:12:36.529Z,60.91
2018-08-31T23:17:39.987Z,60.47
2018-08-31T23:22:43.472Z,60.60
2018-08-31T23:27:53.383Z,59.72
2018-08-31T23:32:56.965Z,60.62
2018-08-31T23:38:00.470Z,61.40
2018-08-31T23:43:04.061Z,61.33
2018-08-31T23:48:07.553Z,60.88
2018-08-31T23:53:11.036Z,61.01
2018-08-31T23:58:14.590Z,61.53
